General Pedro Jose Mendez International Airport
MMCV : rendu visible

Aérodrome :











RETROUVEZ-NOUS SUR...

 
LOGIN :

S'inscrire | Disclaimer

   EN    FR    IT 

 









Légende :    VFR   VFR Marginal   IFR   IFR Intensif   IFR Très Intensif
Visi : 
Plafond : 
>= 8 km
>= 3000ft
5 à 8 km
1000 à 3000 ft
1500m à 5 km
500 à 1000 ft
800 à 1500m
200 à 500 ft
< 800m
< 200 ft
Symboles :   Orages  Brouillard  Fortes neiges  Fortes précipitations  Vent > 20 kt






- Altitude de l'aérodrome : 761 ft
- Code IATA : CVM


MMCV - General Pedro Jose Mendez International

DERNIER METAR :
  • 192242Z 06010KT 7SM FEW020 30/14 A2999 RMK 8/500 HZY

METARs EXPIRÉS :
  • 192141Z 12011KT 7SM FEW020 SCT070 30/13 A3001 RMK 8/530 HZY
  • 192045Z 36005KT 7SM FEW020 SCT070 29/14 A3003 RMK SLP/// 57045 944 8/530 HZY
  • 191943Z 30004KT 7SM FEW020 27/15 A3008 RMK 8/500 HZY ISOL AS

TAF TAF MMCV
Valide du 19 à 18h jusqu'au 20 à 18h UTC


191624Z 1918/2018 34012KT 5SM HZ BKN015
BECMG 1919/1920 SCT020
FM200300 29005KT 4SM HZ BKN015
BECMG 2008/2009 2SM BR HZ BKN010
TEMPO 2011/2015 1SM BR HZ OVC010
FM201600 35008KT 4SM HZ BKN015



MET'MAP, la Météo Aéronautique d'un coup d'oeil ! - Copyright ORBIFLY Décembre 2007 - Disclaimer

ORBIFLY MET'MAP TEAM :

Programmation & Développement : Alexandra Zaïnal
Sur une idée originale de : Baudouin d'Aumeries
Assistance à la programmation : Marc-Olivier Méhu
Soutien technique & logistique : Manuel Goepfert

Contact : metmap@orbifly.com




SOURCES & CREDITS :

   NOAA       Earth
Advisory